CMB weather

Bandaranaike International Colombo Airport
Colombo, Western Province, Sri Lanka

Public forecast

Using degrees Celsius for public forecast. Weather courtesy of forecast.io.

Current aviation weather report (METAR) for Bandaranaike International Colombo Airport

Retrieved 2020/04/02 03:10 UTC (51 minutes ago):

VCBI 020310Z 08005KT CAVOK 29/24 Q1011 NOSIG

Aviation forecast (TAF) for Bandaranaike International Colombo Airport

Retrieved 2020-04-02 00:09 UTC (4 hours ago):

TAF TAF VCBI 012300Z 0200/0306 VRB05KT 9999 FEW018 TX33/0207Z TN24/0200Z TEMPO 0200/0202 5000 BR BECMG 0205/0207 25010KT BECMG 0216/0218 VRB05KT